sensor_id;sensor_type;location;lat;lon;timestamp;pressure;altitude;pressure_sealevel;temperature;humidity
76122;BME280;70471;53.200;6.080;2023-07-28T00:02:08;100319.78;;;19.69;66.65
76122;BME280;70471;53.200;6.080;2023-07-28T00:06:59;100317.94;;;19.64;66.21
76122;BME280;70471;53.200;6.080;2023-07-28T00:11:50;100315.38;;;19.68;66.24
76122;BME280;70471;53.200;6.080;2023-07-28T00:16:43;100319.66;;;19.74;65.33
76122;BME280;70471;53.200;6.080;2023-07-28T00:21:35;100315.31;;;19.82;65.40
76122;BME280;70471;53.200;6.080;2023-07-28T00:26:26;100309.78;;;19.82;65.36
76122;BME280;70471;53.200;6.080;2023-07-28T00:31:18;100302.94;;;19.79;65.57
76122;BME280;70471;53.200;6.080;2023-07-28T00:36:10;100312.88;;;19.80;64.78
76122;BME280;70471;53.200;6.080;2023-07-28T00:41:02;100316.00;;;19.88;65.22
76122;BME280;70471;53.200;6.080;2023-07-28T00:45:54;100309.78;;;19.82;65.88
76122;BME280;70471;53.200;6.080;2023-07-28T00:50:46;100309.94;;;19.77;65.34
76122;BME280;70471;53.200;6.080;2023-07-28T00:55:40;100312.25;;;19.83;65.67
76122;BME280;70471;53.200;6.080;2023-07-28T01:00:32;100308.34;;;19.84;65.77
76122;BME280;70471;53.200;6.080;2023-07-28T01:05:25;100314.38;;;19.87;65.77
76122;BME280;70471;53.200;6.080;2023-07-28T01:10:21;100313.38;;;19.82;65.86
76122;BME280;70471;53.200;6.080;2023-07-28T01:15:15;100316.63;;;19.84;65.55
76122;BME280;70471;53.200;6.080;2023-07-28T01:20:07;100303.94;;;19.83;65.27
76122;BME280;70471;53.200;6.080;2023-07-28T01:25:06;100312.75;;;19.86;65.82
76122;BME280;70471;53.200;6.080;2023-07-28T01:30:00;100309.31;;;19.80;65.07
76122;BME280;70471;53.200;6.080;2023-07-28T01:34:52;100311.09;;;19.84;65.37
76122;BME280;70471;53.200;6.080;2023-07-28T01:39:43;100316.13;;;19.82;65.54
76122;BME280;70471;53.200;6.080;2023-07-28T01:44:35;100315.00;;;19.83;65.26
76122;BME280;70471;53.200;6.080;2023-07-28T01:49:28;100316.00;;;19.88;65.66
76122;BME280;70471;53.200;6.080;2023-07-28T01:54:19;100319.28;;;19.90;64.72
76122;BME280;70471;53.200;6.080;2023-07-28T01:59:10;100323.66;;;19.91;64.74
76122;BME280;70471;53.200;6.080;2023-07-28T02:04:03;100314.56;;;19.90;65.28
76122;BME280;70471;53.200;6.080;2023-07-28T02:08:56;100313.44;;;19.91;64.15
76122;BME280;70471;53.200;6.080;2023-07-28T02:13:48;100313.00;;;19.98;63.68
76122;BME280;70471;53.200;6.080;2023-07-28T02:18:40;100317.09;;;20.00;64.08
76122;BME280;70471;53.200;6.080;2023-07-28T02:23:31;100310.91;;;20.04;63.34
76122;BME280;70471;53.200;6.080;2023-07-28T02:28:24;100320.06;;;20.04;64.04
76122;BME280;70471;53.200;6.080;2023-07-28T02:33:16;100318.09;;;20.05;63.34
76122;BME280;70471;53.200;6.080;2023-07-28T02:38:07;100311.94;;;20.08;63.07
76122;BME280;70471;53.200;6.080;2023-07-28T02:42:59;100313.25;;;20.10;63.16
76122;BME280;70471;53.200;6.080;2023-07-28T02:47:51;100313.75;;;20.12;62.72
76122;BME280;70471;53.200;6.080;2023-07-28T02:52:43;100317.53;;;20.16;62.33
76122;BME280;70471;53.200;6.080;2023-07-28T02:57:35;100329.91;;;20.19;62.00
76122;BME280;70471;53.200;6.080;2023-07-28T03:02:26;100339.03;;;20.19;62.49
76122;BME280;70471;53.200;6.080;2023-07-28T03:07:19;100336.78;;;20.22;61.94
76122;BME280;70471;53.200;6.080;2023-07-28T03:12:11;100357.25;;;20.20;62.15
76122;BME280;70471;53.200;6.080;2023-07-28T03:17:02;100354.50;;;20.20;63.09
76122;BME280;70471;53.200;6.080;2023-07-28T03:21:54;100360.97;;;20.16;63.19
76122;BME280;70471;53.200;6.080;2023-07-28T03:26:46;100359.34;;;20.15;62.94
76122;BME280;70471;53.200;6.080;2023-07-28T03:31:38;100353.59;;;20.11;63.63
76122;BME280;70471;53.200;6.080;2023-07-28T03:36:29;100354.53;;;20.07;63.96
76122;BME280;70471;53.200;6.080;2023-07-28T03:41:20;100361.66;;;19.99;64.62
76122;BME280;70471;53.200;6.080;2023-07-28T03:46:13;100365.97;;;19.91;64.85
76122;BME280;70471;53.200;6.080;2023-07-28T03:51:04;100367.22;;;19.85;64.92
76122;BME280;70471;53.200;6.080;2023-07-28T03:55:56;100368.47;;;19.79;65.30
76122;BME280;70471;53.200;6.080;2023-07-28T04:00:48;100373.38;;;19.82;64.55
76122;BME280;70471;53.200;6.080;2023-07-28T04:05:41;100365.28;;;19.86;64.57
76122;BME280;70471;53.200;6.080;2023-07-28T04:10:32;100369.06;;;19.90;64.38
76122;BME280;70471;53.200;6.080;2023-07-28T04:15:24;100382.34;;;19.88;64.96
76122;BME280;70471;53.200;6.080;2023-07-28T04:20:15;100380.22;;;19.84;64.70
76122;BME280;70471;53.200;6.080;2023-07-28T04:25:08;100388.00;;;19.82;64.63
76122;BME280;70471;53.200;6.080;2023-07-28T04:30:00;100394.69;;;19.81;64.85
76122;BME280;70471;53.200;6.080;2023-07-28T04:34:51;100395.50;;;19.82;65.10
76122;BME280;70471;53.200;6.080;2023-07-28T04:39:44;100401.44;;;19.75;65.63
76122;BME280;70471;53.200;6.080;2023-07-28T04:44:37;100403.31;;;19.66;65.98
76122;BME280;70471;53.200;6.080;2023-07-28T04:49:30;100403.81;;;19.68;65.42
76122;BME280;70471;53.200;6.080;2023-07-28T04:54:21;100407.59;;;19.72;65.48
76122;BME280;70471;53.200;6.080;2023-07-28T04:59:12;100415.91;;;19.72;65.21
76122;BME280;70471;53.200;6.080;2023-07-28T05:04:05;100420.28;;;19.73;65.06
76122;BME280;70471;53.200;6.080;2023-07-28T05:08:57;100416.50;;;19.69;65.22
76122;BME280;70471;53.200;6.080;2023-07-28T05:13:48;100425.09;;;19.68;65.78
76122;BME280;70471;53.200;6.080;2023-07-28T05:18:39;100433.72;;;19.66;65.21
76122;BME280;70471;53.200;6.080;2023-07-28T05:23:34;100426.53;;;19.65;65.51
76122;BME280;70471;53.200;6.080;2023-07-28T05:28:25;100438.50;;;19.60;66.00
76122;BME280;70471;53.200;6.080;2023-07-28T05:33:17;100436.13;;;19.54;66.07
76122;BME280;70471;53.200;6.080;2023-07-28T05:38:08;100431.72;;;19.53;66.06
76122;BME280;70471;53.200;6.080;2023-07-28T05:43:01;100438.28;;;19.57;65.82
76122;BME280;70471;53.200;6.080;2023-07-28T05:47:53;100437.59;;;19.65;65.56
76122;BME280;70471;53.200;6.080;2023-07-28T05:52:44;100445.28;;;19.68;65.90
76122;BME280;70471;53.200;6.080;2023-07-28T05:57:37;100447.69;;;19.56;66.36
76122;BME280;70471;53.200;6.080;2023-07-28T06:02:29;100451.28;;;19.42;66.98
76122;BME280;70471;53.200;6.080;2023-07-28T06:07:21;100452.00;;;19.34;67.41
76122;BME280;70471;53.200;6.080;2023-07-28T06:12:12;100458.75;;;19.28;67.28
76122;BME280;70471;53.200;6.080;2023-07-28T06:17:06;100468.16;;;19.27;67.75
76122;BME280;70471;53.200;6.080;2023-07-28T06:21:59;100471.63;;;19.19;67.94
76122;BME280;70471;53.200;6.080;2023-07-28T06:26:51;100466.19;;;19.14;68.10
76122;BME280;70471;53.200;6.080;2023-07-28T06:31:43;100480.81;;;19.14;67.30
76122;BME280;70471;53.200;6.080;2023-07-28T06:36:34;100477.56;;;19.26;67.19
76122;BME280;70471;53.200;6.080;2023-07-28T06:41:27;100488.84;;;19.29;66.31
76122;BME280;70471;53.200;6.080;2023-07-28T06:46:19;100502.34;;;19.45;65.41
76122;BME280;70471;53.200;6.080;2023-07-28T06:51:10;100507.69;;;19.55;65.27
76122;BME280;70471;53.200;6.080;2023-07-28T06:56:02;100523.28;;;19.65;65.04
76122;BME280;70471;53.200;6.080;2023-07-28T07:00:55;100526.16;;;19.74;64.68
76122;BME280;70471;53.200;6.080;2023-07-28T07:05:47;100524.63;;;19.81;64.12
76122;BME280;70471;53.200;6.080;2023-07-28T07:10:38;100536.38;;;19.87;64.13
76122;BME280;70471;53.200;6.080;2023-07-28T07:15:30;100539.66;;;19.89;63.55
76122;BME280;70471;53.200;6.080;2023-07-28T07:20:22;100543.75;;;19.92;63.35
76122;BME280;70471;53.200;6.080;2023-07-28T07:25:14;100550.31;;;19.96;63.81
76122;BME280;70471;53.200;6.080;2023-07-28T07:30:06;100558.31;;;19.97;63.43
76122;BME280;70471;53.200;6.080;2023-07-28T07:34:58;100568.75;;;20.00;63.10
76122;BME280;70471;53.200;6.080;2023-07-28T07:39:51;100580.63;;;20.01;63.10
76122;BME280;70471;53.200;6.080;2023-07-28T07:44:42;100589.41;;;20.03;62.93
76122;BME280;70471;53.200;6.080;2023-07-28T07:49:33;100591.06;;;20.04;63.35
76122;BME280;70471;53.200;6.080;2023-07-28T07:54:25;100591.88;;;20.05;63.35
76122;BME280;70471;53.200;6.080;2023-07-28T07:59:17;100589.63;;;20.07;62.81
76122;BME280;70471;53.200;6.080;2023-07-28T08:04:09;100596.50;;;20.09;62.99
76122;BME280;70471;53.200;6.080;2023-07-28T08:09:01;100605.28;;;20.11;62.52
76122;BME280;70471;53.200;6.080;2023-07-28T08:13:52;100608.59;;;20.13;62.41
76122;BME280;70471;53.200;6.080;2023-07-28T08:18:45;100615.75;;;20.14;62.16
76122;BME280;70471;53.200;6.080;2023-07-28T08:23:37;100609.09;;;20.15;62.77
76122;BME280;70471;53.200;6.080;2023-07-28T08:28:28;100621.81;;;20.16;62.74
76122;BME280;70471;53.200;6.080;2023-07-28T08:33:19;100627.03;;;20.18;62.76
76122;BME280;70471;53.200;6.080;2023-07-28T08:38:12;100623.97;;;20.19;62.51
76122;BME280;70471;53.200;6.080;2023-07-28T08:43:04;100622.81;;;20.20;63.06
76122;BME280;70471;53.200;6.080;2023-07-28T08:47:56;100630.81;;;20.22;62.46
76122;BME280;70471;53.200;6.080;2023-07-28T08:52:48;100623.63;;;20.21;62.87
76122;BME280;70471;53.200;6.080;2023-07-28T08:57:42;100620.97;;;20.30;62.58
76122;BME280;70471;53.200;6.080;2023-07-28T09:02:33;100632.53;;;20.32;62.66
76122;BME280;70471;53.200;6.080;2023-07-28T09:07:25;100629.78;;;20.32;62.87
76122;BME280;70471;53.200;6.080;2023-07-28T09:12:17;100627.00;;;20.32;63.13
76122;BME280;70471;53.200;6.080;2023-07-28T09:17:11;100627.25;;;20.35;63.05
76122;BME280;70471;53.200;6.080;2023-07-28T09:22:03;100634.31;;;20.42;63.23
76122;BME280;70471;53.200;6.080;2023-07-28T09:26:55;100640.69;;;20.42;62.53
76122;BME280;70471;53.200;6.080;2023-07-28T09:31:46;100637.78;;;20.47;62.68
76122;BME280;70471;53.200;6.080;2023-07-28T09:36:39;100641.97;;;20.59;62.20
76122;BME280;70471;53.200;6.080;2023-07-28T09:41:31;100645.97;;;20.66;61.81
76122;BME280;70471;53.200;6.080;2023-07-28T09:46:24;100650.25;;;20.72;61.67
76122;BME280;70471;53.200;6.080;2023-07-28T09:51:17;100654.38;;;20.75;61.71
76122;BME280;70471;53.200;6.080;2023-07-28T09:56:14;100648.19;;;20.78;61.70
76122;BME280;70471;53.200;6.080;2023-07-28T10:01:06;100657.53;;;20.82;61.13
76122;BME280;70471;53.200;6.080;2023-07-28T10:05:59;100656.41;;;20.83;61.12
76122;BME280;70471;53.200;6.080;2023-07-28T10:10:51;100653.19;;;20.90;60.95
76122;BME280;70471;53.200;6.080;2023-07-28T10:15:46;100655.34;;;20.93;61.08
76122;BME280;70471;53.200;6.080;2023-07-28T10:20:42;100655.53;;;20.97;61.12
76122;BME280;70471;53.200;6.080;2023-07-28T10:25:37;100663.72;;;21.02;60.69
76122;BME280;70471;53.200;6.080;2023-07-28T10:30:35;100662.50;;;21.08;60.54
76122;BME280;70471;53.200;6.080;2023-07-28T10:35:30;100658.59;;;21.09;60.50
76122;BME280;70471;53.200;6.080;2023-07-28T10:40:26;100672.34;;;21.14;60.37
76122;BME280;70471;53.200;6.080;2023-07-28T10:45:18;100674.78;;;21.16;59.87
76122;BME280;70471;53.200;6.080;2023-07-28T10:50:10;100677.19;;;21.08;61.70
76122;BME280;70471;53.200;6.080;2023-07-28T10:55:03;100667.00;;;21.04;62.07
76122;BME280;70471;53.200;6.080;2023-07-28T10:59:59;100668.63;;;21.05;62.19
76122;BME280;70471;53.200;6.080;2023-07-28T11:04:51;100676.88;;;21.10;61.19
76122;BME280;70471;53.200;6.080;2023-07-28T11:09:42;100683.03;;;21.07;62.03
76122;BME280;70471;53.200;6.080;2023-07-28T11:14:35;100679.34;;;21.12;60.49
76122;BME280;70471;53.200;6.080;2023-07-28T11:19:27;100681.88;;;21.08;60.99
76122;BME280;70471;53.200;6.080;2023-07-28T11:24:18;100688.94;;;21.14;61.10
76122;BME280;70471;53.200;6.080;2023-07-28T11:29:10;100690.97;;;21.22;60.61
76122;BME280;70471;53.200;6.080;2023-07-28T11:34:04;100695.88;;;21.25;60.08
76122;BME280;70471;53.200;6.080;2023-07-28T11:39:03;100690.16;;;21.22;60.83
76122;BME280;70471;53.200;6.080;2023-07-28T11:43:56;100709.66;;;21.31;59.42
76122;BME280;70471;53.200;6.080;2023-07-28T11:48:47;100693.50;;;21.33;60.40
76122;BME280;70471;53.200;6.080;2023-07-28T11:53:40;100692.75;;;21.41;60.52
76122;BME280;70471;53.200;6.080;2023-07-28T11:58:31;100701.16;;;21.50;60.31
76122;BME280;70471;53.200;6.080;2023-07-28T12:03:29;100710.00;;;21.60;59.60
76122;BME280;70471;53.200;6.080;2023-07-28T12:08:33;100702.91;;;21.68;59.37
76122;BME280;70471;53.200;6.080;2023-07-28T12:13:26;100706.38;;;21.74;59.26
76122;BME280;70471;53.200;6.080;2023-07-28T12:18:17;100707.38;;;21.78;59.22
76122;BME280;70471;53.200;6.080;2023-07-28T12:23:09;100710.53;;;21.85;58.99
76122;BME280;70471;53.200;6.080;2023-07-28T12:28:01;100718.22;;;21.88;58.63
76122;BME280;70471;53.200;6.080;2023-07-28T12:32:54;100713.66;;;21.92;58.33
76122;BME280;70471;53.200;6.080;2023-07-28T12:37:45;100714.69;;;21.96;58.30
76122;BME280;70471;53.200;6.080;2023-07-28T12:42:37;100716.50;;;22.01;58.21
76122;BME280;70471;53.200;6.080;2023-07-28T12:47:28;100716.69;;;22.05;57.99
76122;BME280;70471;53.200;6.080;2023-07-28T12:52:21;100717.22;;;22.15;57.81
76122;BME280;70471;53.200;6.080;2023-07-28T12:57:13;100711.03;;;22.18;57.56
76122;BME280;70471;53.200;6.080;2023-07-28T13:02:04;100723.81;;;22.28;57.51
76122;BME280;70471;53.200;6.080;2023-07-28T13:06:56;100726.59;;;22.28;57.86
76122;BME280;70471;53.200;6.080;2023-07-28T13:11:48;100731.88;;;22.39;58.10
76122;BME280;70471;53.200;6.080;2023-07-28T13:16:40;100723.88;;;22.46;57.95
76122;BME280;70471;53.200;6.080;2023-07-28T13:21:31;100728.34;;;22.47;58.00
76122;BME280;70471;53.200;6.080;2023-07-28T13:26:23;100721.50;;;22.53;57.89
76122;BME280;70471;53.200;6.080;2023-07-28T13:31:18;100719.72;;;22.57;57.70
76122;BME280;70471;53.200;6.080;2023-07-28T13:36:09;100725.78;;;22.59;57.71
76122;BME280;70471;53.200;6.080;2023-07-28T13:41:03;100725.94;;;22.63;57.11
76122;BME280;70471;53.200;6.080;2023-07-28T13:45:54;100722.34;;;22.62;57.43
76122;BME280;70471;53.200;6.080;2023-07-28T13:50:47;100722.84;;;22.64;57.37
76122;BME280;70471;53.200;6.080;2023-07-28T13:55:39;100719.75;;;22.66;57.27
76122;BME280;70471;53.200;6.080;2023-07-28T14:00:30;100720.72;;;22.70;57.22
76122;BME280;70471;53.200;6.080;2023-07-28T14:05:21;100721.72;;;22.74;57.07
76122;BME280;70471;53.200;6.080;2023-07-28T14:10:14;100726.16;;;22.75;56.92
76122;BME280;70471;53.200;6.080;2023-07-28T14:15:07;100720.28;;;22.77;57.03
76122;BME280;70471;53.200;6.080;2023-07-28T14:19:59;100724.34;;;22.79;57.08
76122;BME280;70471;53.200;6.080;2023-07-28T14:24:50;100725.19;;;22.80;57.10
76122;BME280;70471;53.200;6.080;2023-07-28T14:29:43;100722.88;;;22.82;56.85
76122;BME280;70471;53.200;6.080;2023-07-28T14:34:34;100728.59;;;22.85;56.99
76122;BME280;70471;53.200;6.080;2023-07-28T14:39:26;100731.88;;;22.87;56.89
76122;BME280;70471;53.200;6.080;2023-07-28T14:44:17;100722.56;;;22.92;56.67
76122;BME280;70471;53.200;6.080;2023-07-28T14:49:10;100723.41;;;22.93;56.69
76122;BME280;70471;53.200;6.080;2023-07-28T14:54:02;100723.88;;;22.95;56.50
76122;BME280;70471;53.200;6.080;2023-07-28T14:58:53;100725.22;;;22.97;56.71
76122;BME280;70471;53.200;6.080;2023-07-28T15:03:46;100724.38;;;22.97;56.51
76122;BME280;70471;53.200;6.080;2023-07-28T15:08:39;100725.69;;;23.08;56.46
76122;BME280;70471;53.200;6.080;2023-07-28T15:13:31;100738.63;;;23.13;56.29
76122;BME280;70471;53.200;6.080;2023-07-28T15:18:22;100730.50;;;23.16;56.17
76122;BME280;70471;53.200;6.080;2023-07-28T15:23:14;100736.69;;;23.22;56.17
76122;BME280;70471;53.200;6.080;2023-07-28T15:28:07;100733.28;;;23.25;56.17
76122;BME280;70471;53.200;6.080;2023-07-28T15:32:58;100742.41;;;23.25;56.11
76122;BME280;70471;53.200;6.080;2023-07-28T15:37:49;100731.47;;;23.29;56.09
76122;BME280;70471;53.200;6.080;2023-07-28T15:42:41;100743.56;;;23.33;56.01
76122;BME280;70471;53.200;6.080;2023-07-28T15:47:34;100735.75;;;23.35;55.82
76122;BME280;70471;53.200;6.080;2023-07-28T15:52:26;100735.09;;;23.38;55.94
76122;BME280;70471;53.200;6.080;2023-07-28T15:57:17;100732.63;;;23.37;55.98
76122;BME280;70471;53.200;6.080;2023-07-28T16:02:09;100742.25;;;23.39;55.92
76122;BME280;70471;53.200;6.080;2023-07-28T16:07:02;100736.06;;;23.42;55.72
76122;BME280;70471;53.200;6.080;2023-07-28T16:11:53;100728.84;;;23.41;55.83
76122;BME280;70471;53.200;6.080;2023-07-28T16:16:45;100741.13;;;23.40;55.92
76122;BME280;70471;53.200;6.080;2023-07-28T16:21:36;100734.41;;;23.41;55.98
76122;BME280;70471;53.200;6.080;2023-07-28T16:26:29;100744.88;;;23.44;55.90
76122;BME280;70471;53.200;6.080;2023-07-28T16:31:21;100739.50;;;23.48;55.73
76122;BME280;70471;53.200;6.080;2023-07-28T16:36:12;100731.63;;;23.50;55.66
76122;BME280;70471;53.200;6.080;2023-07-28T16:41:04;100731.63;;;23.50;55.83
76122;BME280;70471;53.200;6.080;2023-07-28T16:45:57;100730.81;;;23.50;55.74
76122;BME280;70471;53.200;6.080;2023-07-28T16:50:48;100728.84;;;23.50;55.84
76122;BME280;70471;53.200;6.080;2023-07-28T16:55:40;100730.81;;;23.50;55.71
76122;BME280;70471;53.200;6.080;2023-07-28T17:00:31;100733.59;;;23.50;55.72
76122;BME280;70471;53.200;6.080;2023-07-28T17:05:24;100733.59;;;23.50;55.78
76122;BME280;70471;53.200;6.080;2023-07-28T17:10:16;100732.94;;;23.53;55.69
76122;BME280;70471;53.200;6.080;2023-07-28T17:15:08;100718.72;;;23.54;55.67
76122;BME280;70471;53.200;6.080;2023-07-28T17:19:59;100720.00;;;23.57;55.76
76122;BME280;70471;53.200;6.080;2023-07-28T17:24:52;100727.22;;;23.58;55.62
76122;BME280;70471;53.200;6.080;2023-07-28T17:29:44;100728.81;;;23.59;55.73
76122;BME280;70471;53.200;6.080;2023-07-28T17:34:35;100724.25;;;23.63;55.31
76122;BME280;70471;53.200;6.080;2023-07-28T17:39:26;100733.41;;;23.64;55.67
76122;BME280;70471;53.200;6.080;2023-07-28T17:44:19;100734.25;;;23.64;55.53
76122;BME280;70471;53.200;6.080;2023-07-28T17:49:11;100730.16;;;23.61;55.58
76122;BME280;70471;53.200;6.080;2023-07-28T17:54:02;100729.81;;;23.63;55.50
76122;BME280;70471;53.200;6.080;2023-07-28T17:58:55;100727.38;;;23.61;55.71
76122;BME280;70471;53.200;6.080;2023-07-28T18:03:47;100731.28;;;23.60;55.68
76122;BME280;70471;53.200;6.080;2023-07-28T18:08:41;100732.78;;;23.58;55.68
76122;BME280;70471;53.200;6.080;2023-07-28T18:13:32;100736.69;;;23.57;55.69
76122;BME280;70471;53.200;6.080;2023-07-28T18:18:24;100742.59;;;23.55;55.83
76122;BME280;70471;53.200;6.080;2023-07-28T18:23:17;100741.28;;;23.53;55.66
76122;BME280;70471;53.200;6.080;2023-07-28T18:28:08;100751.25;;;23.54;55.46
76122;BME280;70471;53.200;6.080;2023-07-28T18:33:00;100758.78;;;23.53;55.67
76122;BME280;70471;53.200;6.080;2023-07-28T18:37:51;100757.47;;;23.51;55.92
76122;BME280;70471;53.200;6.080;2023-07-28T18:42:44;100755.53;;;23.51;55.68
76122;BME280;70471;53.200;6.080;2023-07-28T18:47:35;100751.09;;;23.50;55.74
76122;BME280;70471;53.200;6.080;2023-07-28T18:52:27;100751.44;;;23.49;55.92
76122;BME280;70471;53.200;6.080;2023-07-28T18:57:18;100760.91;;;23.48;55.55
76122;BME280;70471;53.200;6.080;2023-07-28T19:02:11;100752.88;;;23.46;55.75
76122;BME280;70471;53.200;6.080;2023-07-28T19:07:03;100745.72;;;23.45;55.83
76122;BME280;70471;53.200;6.080;2023-07-28T19:11:54;100750.44;;;23.44;55.72
76122;BME280;70471;53.200;6.080;2023-07-28T19:16:46;100758.78;;;23.44;55.97
76122;BME280;70471;53.200;6.080;2023-07-28T19:21:39;100761.56;;;23.44;55.71
76122;BME280;70471;53.200;6.080;2023-07-28T19:26:31;100754.69;;;23.42;55.80
76122;BME280;70471;53.200;6.080;2023-07-28T19:31:23;100762.22;;;23.41;55.79
76122;BME280;70471;53.200;6.080;2023-07-28T19:36:14;100758.94;;;23.39;55.63
76122;BME280;70471;53.200;6.080;2023-07-28T19:41:07;100762.06;;;23.38;55.88
76122;BME280;70471;53.200;6.080;2023-07-28T19:46:00;100764.34;;;23.36;55.88
76122;BME280;70471;53.200;6.080;2023-07-28T19:50:51;100769.09;;;23.35;56.08
76122;BME280;70471;53.200;6.080;2023-07-28T19:55:44;100767.47;;;23.34;56.05
76122;BME280;70471;53.200;6.080;2023-07-28T20:00:36;100769.09;;;23.35;55.68
76122;BME280;70471;53.200;6.080;2023-07-28T20:05:28;100766.97;;;23.32;56.02
76122;BME280;70471;53.200;6.080;2023-07-28T20:10:20;100764.19;;;23.32;55.89
76122;BME280;70471;53.200;6.080;2023-07-28T20:15:12;100770.88;;;23.31;55.91
76122;BME280;70471;53.200;6.080;2023-07-28T20:20:06;100766.47;;;23.30;55.82
76122;BME280;70471;53.200;6.080;2023-07-28T20:24:58;100770.41;;;23.29;55.92
76122;BME280;70471;53.200;6.080;2023-07-28T20:29:49;100767.63;;;23.29;56.03
76122;BME280;70471;53.200;6.080;2023-07-28T20:34:41;100767.94;;;23.28;56.01
76122;BME280;70471;53.200;6.080;2023-07-28T20:39:34;100765.16;;;23.28;55.73
76122;BME280;70471;53.200;6.080;2023-07-28T20:44:26;100775.44;;;23.27;55.74
76122;BME280;70471;53.200;6.080;2023-07-28T20:49:17;100772.66;;;23.27;55.81
76122;BME280;70471;53.200;6.080;2023-07-28T20:54:08;100766.63;;;23.25;55.75
76122;BME280;70471;53.200;6.080;2023-07-28T20:59:01;100764.97;;;23.24;55.84
76122;BME280;70471;53.200;6.080;2023-07-28T21:03:53;100764.97;;;23.24;55.73
76122;BME280;70471;53.200;6.080;2023-07-28T21:08:44;100756.97;;;23.22;55.68
76122;BME280;70471;53.200;6.080;2023-07-28T21:13:36;100764.50;;;23.22;55.71
76122;BME280;70471;53.200;6.080;2023-07-28T21:18:28;100764.50;;;23.22;55.65
76122;BME280;70471;53.200;6.080;2023-07-28T21:23:20;100762.84;;;23.21;55.83
76122;BME280;70471;53.200;6.080;2023-07-28T21:28:12;100764.50;;;23.22;55.71
76122;BME280;70471;53.200;6.080;2023-07-28T21:33:04;100761.22;;;23.20;55.69
76122;BME280;70471;53.200;6.080;2023-07-28T21:37:58;100759.25;;;23.20;55.57
76122;BME280;70471;53.200;6.080;2023-07-28T21:42:49;100753.22;;;23.18;55.51
76122;BME280;70471;53.200;6.080;2023-07-28T21:47:41;100747.97;;;23.17;55.63
76122;BME280;70471;53.200;6.080;2023-07-28T21:52:33;100744.41;;;23.16;55.58
76122;BME280;70471;53.200;6.080;2023-07-28T21:57:26;100751.25;;;23.19;55.50
76122;BME280;70471;53.200;6.080;2023-07-28T22:02:17;100752.41;;;23.18;55.74
76122;BME280;70471;53.200;6.080;2023-07-28T22:07:09;100747.97;;;23.17;55.74
76122;BME280;70471;53.200;6.080;2023-07-28T22:12:00;100747.66;;;23.18;55.84
76122;BME280;70471;53.200;6.080;2023-07-28T22:16:53;100746.84;;;23.18;55.80
76122;BME280;70471;53.200;6.080;2023-07-28T22:21:45;100737.84;;;23.21;56.12
76122;BME280;70471;53.200;6.080;2023-07-28T22:26:36;100734.41;;;23.24;56.11
76122;BME280;70471;53.200;6.080;2023-07-28T22:31:28;100731.28;;;23.25;56.18
76122;BME280;70471;53.200;6.080;2023-07-28T22:36:20;100724.28;;;23.28;55.77
76122;BME280;70471;53.200;6.080;2023-07-28T22:41:12;100723.63;;;23.31;55.84
76122;BME280;70471;53.200;6.080;2023-07-28T22:46:03;100721.31;;;23.33;55.83
76122;BME280;70471;53.200;6.080;2023-07-28T22:50:55;100722.31;;;23.37;55.78
76122;BME280;70471;53.200;6.080;2023-07-28T22:55:48;100725.59;;;23.39;55.46
76122;BME280;70471;53.200;6.080;2023-07-28T23:00:39;100721.66;;;23.40;55.44
76122;BME280;70471;53.200;6.080;2023-07-28T23:05:31;100728.69;;;23.38;55.03
76122;BME280;70471;53.200;6.080;2023-07-28T23:10:22;100715.94;;;23.37;55.32
76122;BME280;70471;53.200;6.080;2023-07-28T23:15:15;100718.53;;;23.33;55.22
76122;BME280;70471;53.200;6.080;2023-07-28T23:20:07;100720.84;;;23.31;55.48
76122;BME280;70471;53.200;6.080;2023-07-28T23:24:59;100723.94;;;23.30;55.43
76122;BME280;70471;53.200;6.080;2023-07-28T23:29:51;100722.63;;;23.27;55.50
76122;BME280;70471;53.200;6.080;2023-07-28T23:34:44;100722.63;;;23.27;55.33
76122;BME280;70471;53.200;6.080;2023-07-28T23:39:35;100720.50;;;23.24;55.14
76122;BME280;70471;53.200;6.080;2023-07-28T23:44:27;100718.72;;;23.19;55.23
76122;BME280;70471;53.200;6.080;2023-07-28T23:49:18;100709.41;;;23.15;55.37
76122;BME280;70471;53.200;6.080;2023-07-28T23:54:11;100702.47;;;23.13;55.23
76122;BME280;70471;53.200;6.080;2023-07-28T23:59:03;100682.72;;;23.05;55.32
